createdAt,value
2018-06-23T00:09:07.009Z,89.2
2018-06-23T00:19:21.014Z,86
2018-06-23T00:29:36.578Z,81.6
2018-06-23T00:39:51.815Z,80
2018-06-23T00:50:06.540Z,83.1
2018-06-23T01:00:20.402Z,86.3
2018-06-23T01:10:34.128Z,85.9
2018-06-23T01:20:49.315Z,88.8
2018-06-23T01:31:03.849Z,87.1
2018-06-23T01:41:19.251Z,85
2018-06-23T01:51:33.358Z,84
2018-06-23T02:01:47.396Z,81.7
2018-06-23T02:12:02.122Z,79.5
2018-06-23T02:22:16.582Z,78
2018-06-23T02:32:31.304Z,79.7
2018-06-23T02:42:45.058Z,79.9
2018-06-23T02:53:00.633Z,79.6
2018-06-23T03:03:15.412Z,76.5
2018-06-23T03:13:30.039Z,73.7
2018-06-23T03:23:44.241Z,73.7
2018-06-23T03:33:59.703Z,71.8
2018-06-23T03:44:15.174Z,77.1
2018-06-23T03:54:30.560Z,79.9
2018-06-23T04:04:46.037Z,74.9
2018-06-23T04:15:00.671Z,63.1
2018-06-23T04:25:15.432Z,52
2018-06-23T04:35:30.542Z,49.4
2018-06-23T04:45:44.489Z,49.2
2018-06-23T04:56:00.188Z,49.3
2018-06-23T05:06:13.866Z,42
2018-06-23T05:16:27.954Z,41.2
2018-06-23T05:26:43.516Z,43.2
2018-06-23T05:36:57.511Z,45.6
2018-06-23T05:47:13.147Z,50.6
2018-06-23T05:57:26.855Z,61.5
2018-06-23T06:07:41.252Z,69.1
2018-06-23T06:17:55.653Z,74.1
2018-06-23T06:28:10.907Z,90.8
2018-06-23T06:38:24.722Z,98.8
2018-06-23T06:48:38.826Z,98.4
2018-06-23T06:58:53.578Z,99.5
2018-06-23T07:09:09.189Z,99.7
2018-06-23T07:19:23.892Z,100
2018-06-23T07:29:37.939Z,100
2018-06-23T07:39:53.710Z,100
2018-06-23T07:50:08.871Z,100
2018-06-23T08:00:22.859Z,100
2018-06-23T08:10:38.458Z,100
2018-06-23T08:20:52.545Z,95.4
2018-06-23T08:31:07.091Z,93.2
2018-06-23T08:41:22.606Z,92.3
2018-06-23T08:51:36.630Z,90
2018-06-23T09:01:51.759Z,88.5
2018-06-23T09:12:06.641Z,90.2
2018-06-23T09:22:21.863Z,88.5
2018-06-23T09:32:36.824Z,86.4
2018-06-23T09:42:50.846Z,89.2
2018-06-23T09:53:06.051Z,89.4
2018-06-23T10:03:20.947Z,87.9
2018-06-23T10:13:34.995Z,86.6
2018-06-23T10:23:49.403Z,86.3
2018-06-23T10:34:04.806Z,86
2018-06-23T10:44:19.553Z,84.1
2018-06-23T10:54:33.761Z,82.9
2018-06-23T11:04:48.254Z,80.6
2018-06-23T11:15:04.181Z,81.7
2018-06-23T11:25:19.882Z,78.9
2018-06-23T11:35:34.035Z,81
2018-06-23T11:45:48.822Z,78.4
2018-06-23T11:56:03.034Z,80.7
2018-06-23T12:06:18.147Z,80.6
2018-06-23T12:16:34.016Z,77.4
2018-06-23T12:26:49.347Z,75.7
2018-06-23T12:37:04.785Z,75.4
2018-06-23T12:47:20.589Z,73.5
2018-06-23T12:57:35.716Z,72.1
2018-06-23T13:07:50.559Z,71.9
2018-06-23T13:18:06.077Z,73.3
2018-06-23T13:28:21.711Z,73.8
2018-06-23T13:38:36.681Z,74.4
2018-06-23T13:48:50.534Z,73.3
2018-06-23T13:59:06.180Z,73.3
2018-06-23T14:09:21.823Z,72.8
2018-06-23T14:19:37.366Z,72.4
2018-06-23T14:29:53.354Z,71
2018-06-23T14:40:07.178Z,70.8
2018-06-23T14:50:22.556Z,70.5
2018-06-23T15:00:37.876Z,70.9
2018-06-23T15:10:52.952Z,70.3
2018-06-23T15:21:08.599Z,70.2
2018-06-23T15:31:24.134Z,71
2018-06-23T15:41:38.899Z,72.2
2018-06-23T15:51:53.775Z,71.4
2018-06-23T16:02:08.197Z,68.2
2018-06-23T16:12:22.408Z,68
2018-06-23T16:22:36.957Z,68.3
2018-06-23T16:32:51.401Z,69.8
2018-06-23T16:43:06.460Z,70.7
2018-06-23T16:53:21.079Z,70
2018-06-23T17:03:36.361Z,69.8
2018-06-23T17:13:51.615Z,69.6
2018-06-23T17:24:07.311Z,70.4
2018-06-23T17:34:22.267Z,72
2018-06-23T17:44:37.275Z,75.2
2018-06-23T17:54:52.976Z,75.6
2018-06-23T18:05:06.956Z,77
2018-06-23T18:15:21.885Z,79.5
2018-06-23T18:25:37.016Z,81.5
2018-06-23T18:35:51.057Z,83.8
2018-06-23T18:46:05.144Z,84.7
2018-06-23T18:56:20.620Z,85.2
2018-06-23T19:06:35.382Z,86.5
2018-06-23T19:16:49.198Z,86.5
2018-06-23T19:27:03.858Z,87
2018-06-23T19:37:18.728Z,89.1
2018-06-23T19:47:33.278Z,90.8
2018-06-23T19:57:48.002Z,91.4
2018-06-23T20:08:03.445Z,93.2
2018-06-23T20:18:17.468Z,93
2018-06-23T20:28:32.326Z,92.4
2018-06-23T20:38:46.105Z,89.5
2018-06-23T20:49:01.583Z,83.9
2018-06-23T20:59:16.998Z,74.8
2018-06-23T21:09:30.762Z,72
2018-06-23T21:19:45.284Z,72.1
2018-06-23T21:29:59.374Z,61.5
2018-06-23T21:40:13.946Z,70
2018-06-23T21:50:28.153Z,69.3
2018-06-23T22:00:42.993Z,70.2
2018-06-23T22:10:57.105Z,65.2
2018-06-23T22:21:12.593Z,62.6
2018-06-23T22:31:26.926Z,51
2018-06-23T22:41:41.110Z,44.3
2018-06-23T22:51:54.964Z,42.6
2018-06-23T23:02:09.432Z,56
2018-06-23T23:12:24.087Z,77.8
2018-06-23T23:22:38.947Z,84
2018-06-23T23:32:53.766Z,84.4
2018-06-23T23:43:09.439Z,85
2018-06-23T23:53:23.600Z,85.5
